sensor_id;sensor_type;location;lat;lon;timestamp;P1;P2;P0
64114;PMS5003;62188;35.640;139.748;2023-08-06T00:01:29;11;9;
64114;PMS5003;62188;35.640;139.748;2023-08-06T00:03:54;7;7;
64114;PMS5003;62188;35.640;139.748;2023-08-06T00:06:20;7;7;
64114;PMS5003;62188;35.640;139.748;2023-08-06T00:08:44;9;8;
64114;PMS5003;62188;35.640;139.748;2023-08-06T00:11:10;5;5;
64114;PMS5003;62188;35.640;139.748;2023-08-06T00:13:35;6;6;
64114;PMS5003;62188;35.640;139.748;2023-08-06T00:18:26;8;7;
64114;PMS5003;62188;35.640;139.748;2023-08-06T00:20:52;8;8;
64114;PMS5003;62188;35.640;139.748;2023-08-06T00:23:16;9;9;
64114;PMS5003;62188;35.640;139.748;2023-08-06T00:25:41;7;7;
64114;PMS5003;62188;35.640;139.748;2023-08-06T00:28:07;9;9;
64114;PMS5003;62188;35.640;139.748;2023-08-06T00:30:32;10;9;
64114;PMS5003;62188;35.640;139.748;2023-08-06T00:32:57;8;8;
64114;PMS5003;62188;35.640;139.748;2023-08-06T00:35:22;7;7;
64114;PMS5003;62188;35.640;139.748;2023-08-06T00:37:48;9;7;
64114;PMS5003;62188;35.640;139.748;2023-08-06T00:40:13;8;7;
64114;PMS5003;62188;35.640;139.748;2023-08-06T00:42:38;4;4;
64114;PMS5003;62188;35.640;139.748;2023-08-06T00:45:04;9;8;
64114;PMS5003;62188;35.640;139.748;2023-08-06T00:47:29;7;6;
64114;PMS5003;62188;35.640;139.748;2023-08-06T00:49:54;8;7;
64114;PMS5003;62188;35.640;139.748;2023-08-06T00:52:19;6;6;
64114;PMS5003;62188;35.640;139.748;2023-08-06T00:54:44;5;5;
64114;PMS5003;62188;35.640;139.748;2023-08-06T00:57:10;4;4;
64114;PMS5003;62188;35.640;139.748;2023-08-06T00:59:35;4;4;
64114;PMS5003;62188;35.640;139.748;2023-08-06T01:02:00;6;6;
64114;PMS5003;62188;35.640;139.748;2023-08-06T01:04:26;6;5;
64114;PMS5003;62188;35.640;139.748;2023-08-06T01:06:55;4;4;
64114;PMS5003;62188;35.640;139.748;2023-08-06T01:09:21;4;4;
64114;PMS5003;62188;35.640;139.748;2023-08-06T01:11:44;5;5;
64114;PMS5003;62188;35.640;139.748;2023-08-06T01:14:08;5;5;
64114;PMS5003;62188;35.640;139.748;2023-08-06T01:16:32;5;5;
64114;PMS5003;62188;35.640;139.748;2023-08-06T01:18:57;4;4;
64114;PMS5003;62188;35.640;139.748;2023-08-06T01:21:22;3;2;
64114;PMS5003;62188;35.640;139.748;2023-08-06T01:23:48;4;3;
64114;PMS5003;62188;35.640;139.748;2023-08-06T01:26:14;2;2;
64114;PMS5003;62188;35.640;139.748;2023-08-06T01:28:40;2;2;
64114;PMS5003;62188;35.640;139.748;2023-08-06T01:31:04;2;1;
64114;PMS5003;62188;35.640;139.748;2023-08-06T01:33:29;3;2;
64114;PMS5003;62188;35.640;139.748;2023-08-06T01:35:54;1;1;
64114;PMS5003;62188;35.640;139.748;2023-08-06T01:38:19;1;1;
64114;PMS5003;62188;35.640;139.748;2023-08-06T01:40:44;1;1;
64114;PMS5003;62188;35.640;139.748;2023-08-06T01:43:10;0;0;
64114;PMS5003;62188;35.640;139.748;2023-08-06T01:45:35;2;2;
64114;PMS5003;62188;35.640;139.748;2023-08-06T01:48:00;0;0;
64114;PMS5003;62188;35.640;139.748;2023-08-06T01:50:26;1;1;
64114;PMS5003;62188;35.640;139.748;2023-08-06T01:52:51;2;2;
64114;PMS5003;62188;35.640;139.748;2023-08-06T01:55:16;2;1;
64114;PMS5003;62188;35.640;139.748;2023-08-06T01:57:41;1;1;
64114;PMS5003;62188;35.640;139.748;2023-08-06T02:00:07;1;0;
64114;PMS5003;62188;35.640;139.748;2023-08-06T02:02:31;1;1;
64114;PMS5003;62188;35.640;139.748;2023-08-06T02:04:57;1;1;
64114;PMS5003;62188;35.640;139.748;2023-08-06T02:07:22;3;2;
64114;PMS5003;62188;35.640;139.748;2023-08-06T02:09:47;5;3;
64114;PMS5003;62188;35.640;139.748;2023-08-06T02:12:13;2;2;
64114;PMS5003;62188;35.640;139.748;2023-08-06T02:14:38;4;3;
64114;PMS5003;62188;35.640;139.748;2023-08-06T02:17:03;3;2;
64114;PMS5003;62188;35.640;139.748;2023-08-06T02:19:28;5;4;
64114;PMS5003;62188;35.640;139.748;2023-08-06T02:21:53;8;7;
64114;PMS5003;62188;35.640;139.748;2023-08-06T02:24:19;6;4;
64114;PMS5003;62188;35.640;139.748;2023-08-06T02:26:44;3;3;
64114;PMS5003;62188;35.640;139.748;2023-08-06T02:29:09;2;2;
64114;PMS5003;62188;35.640;139.748;2023-08-06T02:31:34;3;3;
64114;PMS5003;62188;35.640;139.748;2023-08-06T02:34:00;4;4;
64114;PMS5003;62188;35.640;139.748;2023-08-06T02:36:25;1;1;
64114;PMS5003;62188;35.640;139.748;2023-08-06T02:38:50;4;3;
64114;PMS5003;62188;35.640;139.748;2023-08-06T02:41:15;3;1;
64114;PMS5003;62188;35.640;139.748;2023-08-06T02:43:41;2;2;
64114;PMS5003;62188;35.640;139.748;2023-08-06T02:46:06;3;3;
64114;PMS5003;62188;35.640;139.748;2023-08-06T02:48:31;2;2;
64114;PMS5003;62188;35.640;139.748;2023-08-06T02:50:58;2;2;
64114;PMS5003;62188;35.640;139.748;2023-08-06T02:53:22;3;3;
64114;PMS5003;62188;35.640;139.748;2023-08-06T02:55:47;1;1;
64114;PMS5003;62188;35.640;139.748;2023-08-06T02:58:12;1;1;
64114;PMS5003;62188;35.640;139.748;2023-08-06T03:00:38;2;2;
64114;PMS5003;62188;35.640;139.748;2023-08-06T03:03:03;3;2;
64114;PMS5003;62188;35.640;139.748;2023-08-06T03:05:28;4;4;
64114;PMS5003;62188;35.640;139.748;2023-08-06T03:07:53;2;2;
64114;PMS5003;62188;35.640;139.748;2023-08-06T03:10:18;5;4;
64114;PMS5003;62188;35.640;139.748;2023-08-06T03:12:44;4;3;
64114;PMS5003;62188;35.640;139.748;2023-08-06T03:15:09;4;3;
64114;PMS5003;62188;35.640;139.748;2023-08-06T03:17:34;2;2;
64114;PMS5003;62188;35.640;139.748;2023-08-06T03:20:00;2;1;
64114;PMS5003;62188;35.640;139.748;2023-08-06T03:22:25;3;3;
64114;PMS5003;62188;35.640;139.748;2023-08-06T03:24:50;2;2;
64114;PMS5003;62188;35.640;139.748;2023-08-06T03:27:15;2;2;
64114;PMS5003;62188;35.640;139.748;2023-08-06T03:29:40;0;0;
64114;PMS5003;62188;35.640;139.748;2023-08-06T03:32:06;2;1;
64114;PMS5003;62188;35.640;139.748;2023-08-06T03:34:31;2;2;
64114;PMS5003;62188;35.640;139.748;2023-08-06T03:36:56;2;1;
64114;PMS5003;62188;35.640;139.748;2023-08-06T03:39:22;2;2;
64114;PMS5003;62188;35.640;139.748;2023-08-06T03:41:47;4;3;
64114;PMS5003;62188;35.640;139.748;2023-08-06T03:44:12;3;2;
64114;PMS5003;62188;35.640;139.748;2023-08-06T03:46:38;3;3;
64114;PMS5003;62188;35.640;139.748;2023-08-06T03:49:02;3;2;
64114;PMS5003;62188;35.640;139.748;2023-08-06T03:51:28;1;1;
64114;PMS5003;62188;35.640;139.748;2023-08-06T03:53:53;1;0;
64114;PMS5003;62188;35.640;139.748;2023-08-06T03:56:18;0;0;
64114;PMS5003;62188;35.640;139.748;2023-08-06T03:58:43;1;1;
64114;PMS5003;62188;35.640;139.748;2023-08-06T04:01:09;3;2;
64114;PMS5003;62188;35.640;139.748;2023-08-06T04:03:34;1;1;
64114;PMS5003;62188;35.640;139.748;2023-08-06T04:05:59;0;0;
64114;PMS5003;62188;35.640;139.748;2023-08-06T04:08:24;0;0;
64114;PMS5003;62188;35.640;139.748;2023-08-06T04:10:50;0;0;
64114;PMS5003;62188;35.640;139.748;2023-08-06T04:13:15;0;0;
64114;PMS5003;62188;35.640;139.748;2023-08-06T04:15:40;0;0;
64114;PMS5003;62188;35.640;139.748;2023-08-06T04:18:06;1;0;
64114;PMS5003;62188;35.640;139.748;2023-08-06T04:20:30;1;0;
64114;PMS5003;62188;35.640;139.748;2023-08-06T04:22:56;0;0;
64114;PMS5003;62188;35.640;139.748;2023-08-06T04:25:21;1;1;
64114;PMS5003;62188;35.640;139.748;2023-08-06T04:27:46;0;0;
64114;PMS5003;62188;35.640;139.748;2023-08-06T04:30:12;0;0;
64114;PMS5003;62188;35.640;139.748;2023-08-06T04:32:37;1;1;
64114;PMS5003;62188;35.640;139.748;2023-08-06T04:35:02;0;0;
64114;PMS5003;62188;35.640;139.748;2023-08-06T04:37:27;0;0;
64114;PMS5003;62188;35.640;139.748;2023-08-06T04:39:53;1;1;
64114;PMS5003;62188;35.640;139.748;2023-08-06T04:42:18;1;1;
64114;PMS5003;62188;35.640;139.748;2023-08-06T04:44:43;1;1;
64114;PMS5003;62188;35.640;139.748;2023-08-06T04:47:08;1;1;
64114;PMS5003;62188;35.640;139.748;2023-08-06T04:49:33;1;1;
64114;PMS5003;62188;35.640;139.748;2023-08-06T04:51:59;2;1;
64114;PMS5003;62188;35.640;139.748;2023-08-06T04:54:24;0;0;
64114;PMS5003;62188;35.640;139.748;2023-08-06T04:56:49;0;0;
64114;PMS5003;62188;35.640;139.748;2023-08-06T04:59:14;1;1;
64114;PMS5003;62188;35.640;139.748;2023-08-06T05:01:40;0;0;
64114;PMS5003;62188;35.640;139.748;2023-08-06T05:04:05;1;0;
64114;PMS5003;62188;35.640;139.748;2023-08-06T05:06:30;1;0;
64114;PMS5003;62188;35.640;139.748;2023-08-06T05:08:55;1;1;
64114;PMS5003;62188;35.640;139.748;2023-08-06T05:11:21;1;1;
64114;PMS5003;62188;35.640;139.748;2023-08-06T05:13:46;2;1;
64114;PMS5003;62188;35.640;139.748;2023-08-06T05:16:11;1;1;
64114;PMS5003;62188;35.640;139.748;2023-08-06T05:18:36;3;2;
64114;PMS5003;62188;35.640;139.748;2023-08-06T05:21:02;2;1;
64114;PMS5003;62188;35.640;139.748;2023-08-06T05:23:27;1;0;
64114;PMS5003;62188;35.640;139.748;2023-08-06T05:25:52;1;1;
64114;PMS5003;62188;35.640;139.748;2023-08-06T05:28:17;1;1;
64114;PMS5003;62188;35.640;139.748;2023-08-06T05:30:43;1;1;
64114;PMS5003;62188;35.640;139.748;2023-08-06T05:33:08;0;0;
64114;PMS5003;62188;35.640;139.748;2023-08-06T05:35:33;1;1;
64114;PMS5003;62188;35.640;139.748;2023-08-06T05:37:58;0;0;
64114;PMS5003;62188;35.640;139.748;2023-08-06T05:40:23;2;1;
64114;PMS5003;62188;35.640;139.748;2023-08-06T05:42:49;1;1;
64114;PMS5003;62188;35.640;139.748;2023-08-06T05:45:14;2;1;
64114;PMS5003;62188;35.640;139.748;2023-08-06T05:47:39;0;0;
64114;PMS5003;62188;35.640;139.748;2023-08-06T05:50:05;2;2;
64114;PMS5003;62188;35.640;139.748;2023-08-06T05:52:29;2;1;
64114;PMS5003;62188;35.640;139.748;2023-08-06T05:54:55;1;1;
64114;PMS5003;62188;35.640;139.748;2023-08-06T05:57:20;3;2;
64114;PMS5003;62188;35.640;139.748;2023-08-06T05:59:45;2;2;
64114;PMS5003;62188;35.640;139.748;2023-08-06T06:02:11;1;1;
64114;PMS5003;62188;35.640;139.748;2023-08-06T06:04:36;2;2;
64114;PMS5003;62188;35.640;139.748;2023-08-06T06:07:01;3;3;
64114;PMS5003;62188;35.640;139.748;2023-08-06T06:09:26;4;3;
64114;PMS5003;62188;35.640;139.748;2023-08-06T06:11:52;3;3;
64114;PMS5003;62188;35.640;139.748;2023-08-06T06:14:17;5;4;
64114;PMS5003;62188;35.640;139.748;2023-08-06T06:16:42;4;4;
64114;PMS5003;62188;35.640;139.748;2023-08-06T06:19:07;4;4;
64114;PMS5003;62188;35.640;139.748;2023-08-06T06:21:33;5;4;
64114;PMS5003;62188;35.640;139.748;2023-08-06T06:23:58;5;4;
64114;PMS5003;62188;35.640;139.748;2023-08-06T06:26:24;4;3;
64114;PMS5003;62188;35.640;139.748;2023-08-06T06:28:48;4;2;
64114;PMS5003;62188;35.640;139.748;2023-08-06T06:31:14;5;4;
64114;PMS5003;62188;35.640;139.748;2023-08-06T06:33:39;3;2;
64114;PMS5003;62188;35.640;139.748;2023-08-06T06:36:05;5;5;
64114;PMS5003;62188;35.640;139.748;2023-08-06T06:38:29;6;5;
64114;PMS5003;62188;35.640;139.748;2023-08-06T06:40:55;5;4;
64114;PMS5003;62188;35.640;139.748;2023-08-06T06:43:20;3;3;
64114;PMS5003;62188;35.640;139.748;2023-08-06T06:45:45;6;5;
64114;PMS5003;62188;35.640;139.748;2023-08-06T06:48:10;8;6;
64114;PMS5003;62188;35.640;139.748;2023-08-06T06:50:36;6;5;
64114;PMS5003;62188;35.640;139.748;2023-08-06T06:53:01;6;5;
64114;PMS5003;62188;35.640;139.748;2023-08-06T06:55:31;10;6;
64114;PMS5003;62188;35.640;139.748;2023-08-06T06:57:52;10;8;
64114;PMS5003;62188;35.640;139.748;2023-08-06T07:00:17;10;7;
64114;PMS5003;62188;35.640;139.748;2023-08-06T07:02:43;9;7;
64114;PMS5003;62188;35.640;139.748;2023-08-06T07:05:08;7;6;
64114;PMS5003;62188;35.640;139.748;2023-08-06T07:07:33;11;7;
64114;PMS5003;62188;35.640;139.748;2023-08-06T07:09:59;9;7;
64114;PMS5003;62188;35.640;139.748;2023-08-06T07:12:25;7;7;
64114;PMS5003;62188;35.640;139.748;2023-08-06T07:14:50;5;4;
64114;PMS5003;62188;35.640;139.748;2023-08-06T07:17:15;8;7;
64114;PMS5003;62188;35.640;139.748;2023-08-06T07:19:40;7;6;
64114;PMS5003;62188;35.640;139.748;2023-08-06T07:22:06;6;6;
64114;PMS5003;62188;35.640;139.748;2023-08-06T07:24:31;5;4;
64114;PMS5003;62188;35.640;139.748;2023-08-06T07:26:56;8;6;
64114;PMS5003;62188;35.640;139.748;2023-08-06T07:29:21;6;6;
64114;PMS5003;62188;35.640;139.748;2023-08-06T07:31:46;7;7;
64114;PMS5003;62188;35.640;139.748;2023-08-06T07:34:12;6;6;
64114;PMS5003;62188;35.640;139.748;2023-08-06T07:36:37;7;6;
64114;PMS5003;62188;35.640;139.748;2023-08-06T07:39:02;8;8;
64114;PMS5003;62188;35.640;139.748;2023-08-06T07:41:28;6;6;
64114;PMS5003;62188;35.640;139.748;2023-08-06T07:43:53;10;6;
64114;PMS5003;62188;35.640;139.748;2023-08-06T07:46:18;7;7;
64114;PMS5003;62188;35.640;139.748;2023-08-06T07:48:43;6;6;
64114;PMS5003;62188;35.640;139.748;2023-08-06T07:51:09;8;8;
64114;PMS5003;62188;35.640;139.748;2023-08-06T07:53:34;10;9;
64114;PMS5003;62188;35.640;139.748;2023-08-06T07:55:59;9;8;
64114;PMS5003;62188;35.640;139.748;2023-08-06T07:58:24;10;6;
64114;PMS5003;62188;35.640;139.748;2023-08-06T08:00:49;7;7;
64114;PMS5003;62188;35.640;139.748;2023-08-06T08:03:15;7;7;
64114;PMS5003;62188;35.640;139.748;2023-08-06T08:05:40;9;7;
64114;PMS5003;62188;35.640;139.748;2023-08-06T08:08:05;4;4;
64114;PMS5003;62188;35.640;139.748;2023-08-06T08:10:31;6;6;
64114;PMS5003;62188;35.640;139.748;2023-08-06T08:12:56;7;7;
64114;PMS5003;62188;35.640;139.748;2023-08-06T08:15:21;7;6;
64114;PMS5003;62188;35.640;139.748;2023-08-06T08:17:47;7;5;
64114;PMS5003;62188;35.640;139.748;2023-08-06T08:20:17;7;5;
64114;PMS5003;62188;35.640;139.748;2023-08-06T08:22:37;5;5;
64114;PMS5003;62188;35.640;139.748;2023-08-06T08:25:04;7;6;
64114;PMS5003;62188;35.640;139.748;2023-08-06T08:27:27;5;4;
64114;PMS5003;62188;35.640;139.748;2023-08-06T08:29:53;5;5;
64114;PMS5003;62188;35.640;139.748;2023-08-06T08:32:18;7;7;
64114;PMS5003;62188;35.640;139.748;2023-08-06T08:34:43;9;9;
64114;PMS5003;62188;35.640;139.748;2023-08-06T08:37:08;9;9;
64114;PMS5003;62188;35.640;139.748;2023-08-06T08:39:34;9;9;
64114;PMS5003;62188;35.640;139.748;2023-08-06T08:41:59;10;9;
64114;PMS5003;62188;35.640;139.748;2023-08-06T08:44:24;8;8;
64114;PMS5003;62188;35.640;139.748;2023-08-06T08:46:49;10;9;
64114;PMS5003;62188;35.640;139.748;2023-08-06T08:49:15;8;8;
64114;PMS5003;62188;35.640;139.748;2023-08-06T08:51:40;7;7;
64114;PMS5003;62188;35.640;139.748;2023-08-06T08:54:05;7;6;
64114;PMS5003;62188;35.640;139.748;2023-08-06T08:56:30;11;8;
64114;PMS5003;62188;35.640;139.748;2023-08-06T08:58:56;8;8;
64114;PMS5003;62188;35.640;139.748;2023-08-06T09:01:21;9;9;
64114;PMS5003;62188;35.640;139.748;2023-08-06T09:03:46;9;9;
64114;PMS5003;62188;35.640;139.748;2023-08-06T09:06:11;10;10;
64114;PMS5003;62188;35.640;139.748;2023-08-06T09:08:38;9;9;
64114;PMS5003;62188;35.640;139.748;2023-08-06T09:11:02;9;9;
64114;PMS5003;62188;35.640;139.748;2023-08-06T09:13:27;9;9;
64114;PMS5003;62188;35.640;139.748;2023-08-06T09:15:53;11;11;
64114;PMS5003;62188;35.640;139.748;2023-08-06T09:20:43;11;9;
64114;PMS5003;62188;35.640;139.748;2023-08-06T09:23:09;11;10;
64114;PMS5003;62188;35.640;139.748;2023-08-06T09:25:34;9;9;
64114;PMS5003;62188;35.640;139.748;2023-08-06T09:27:59;11;10;
64114;PMS5003;62188;35.640;139.748;2023-08-06T09:30:30;11;10;
64114;PMS5003;62188;35.640;139.748;2023-08-06T09:32:49;10;10;
64114;PMS5003;62188;35.640;139.748;2023-08-06T09:35:16;9;9;
64114;PMS5003;62188;35.640;139.748;2023-08-06T09:37:40;13;10;
64114;PMS5003;62188;35.640;139.748;2023-08-06T09:42:31;8;7;
64114;PMS5003;62188;35.640;139.748;2023-08-06T09:44:56;9;9;
64114;PMS5003;62188;35.640;139.748;2023-08-06T09:47:21;11;10;
64114;PMS5003;62188;35.640;139.748;2023-08-06T09:49:46;10;9;
64114;PMS5003;62188;35.640;139.748;2023-08-06T09:52:12;7;7;
64114;PMS5003;62188;35.640;139.748;2023-08-06T09:54:37;11;10;
64114;PMS5003;62188;35.640;139.748;2023-08-06T09:57:03;8;8;
64114;PMS5003;62188;35.640;139.748;2023-08-06T09:59:28;11;11;
64114;PMS5003;62188;35.640;139.748;2023-08-06T10:01:54;11;11;
64114;PMS5003;62188;35.640;139.748;2023-08-06T10:04:19;11;10;
64114;PMS5003;62188;35.640;139.748;2023-08-06T10:06:46;12;11;
64114;PMS5003;62188;35.640;139.748;2023-08-06T10:09:09;10;10;
64114;PMS5003;62188;35.640;139.748;2023-08-06T10:11:34;11;10;
64114;PMS5003;62188;35.640;139.748;2023-08-06T10:14:02;9;9;
64114;PMS5003;62188;35.640;139.748;2023-08-06T10:16:25;9;9;
64114;PMS5003;62188;35.640;139.748;2023-08-06T10:18:50;11;11;
64114;PMS5003;62188;35.640;139.748;2023-08-06T10:21:16;10;10;
64114;PMS5003;62188;35.640;139.748;2023-08-06T10:23:41;7;7;
64114;PMS5003;62188;35.640;139.748;2023-08-06T10:26:06;7;7;
64114;PMS5003;62188;35.640;139.748;2023-08-06T10:28:35;6;6;
64114;PMS5003;62188;35.640;139.748;2023-08-06T10:30:56;8;8;
64114;PMS5003;62188;35.640;139.748;2023-08-06T10:33:22;9;6;
64114;PMS5003;62188;35.640;139.748;2023-08-06T10:35:47;6;6;
64114;PMS5003;62188;35.640;139.748;2023-08-06T10:38:14;8;7;
64114;PMS5003;62188;35.640;139.748;2023-08-06T10:40:39;7;7;
64114;PMS5003;62188;35.640;139.748;2023-08-06T10:43:03;9;9;
64114;PMS5003;62188;35.640;139.748;2023-08-06T10:45:28;8;8;
64114;PMS5003;62188;35.640;139.748;2023-08-06T10:47:54;8;8;
64114;PMS5003;62188;35.640;139.748;2023-08-06T10:50:18;9;8;
64114;PMS5003;62188;35.640;139.748;2023-08-06T10:52:44;9;8;
64114;PMS5003;62188;35.640;139.748;2023-08-06T10:55:09;9;7;
64114;PMS5003;62188;35.640;139.748;2023-08-06T10:57:34;11;10;
64114;PMS5003;62188;35.640;139.748;2023-08-06T10:59:59;10;9;
64114;PMS5003;62188;35.640;139.748;2023-08-06T11:02:25;8;7;
64114;PMS5003;62188;35.640;139.748;2023-08-06T11:04:50;5;5;
64114;PMS5003;62188;35.640;139.748;2023-08-06T11:07:15;7;7;
64114;PMS5003;62188;35.640;139.748;2023-08-06T11:09:40;6;6;
64114;PMS5003;62188;35.640;139.748;2023-08-06T11:12:08;8;7;
64114;PMS5003;62188;35.640;139.748;2023-08-06T11:14:31;8;6;
64114;PMS5003;62188;35.640;139.748;2023-08-06T11:16:56;8;6;
64114;PMS5003;62188;35.640;139.748;2023-08-06T11:19:22;6;6;
64114;PMS5003;62188;35.640;139.748;2023-08-06T11:21:47;6;5;
64114;PMS5003;62188;35.640;139.748;2023-08-06T11:24:12;7;6;
64114;PMS5003;62188;35.640;139.748;2023-08-06T11:26:37;7;6;
64114;PMS5003;62188;35.640;139.748;2023-08-06T11:29:02;8;6;
64114;PMS5003;62188;35.640;139.748;2023-08-06T11:31:28;4;4;
64114;PMS5003;62188;35.640;139.748;2023-08-06T11:33:53;6;5;
64114;PMS5003;62188;35.640;139.748;2023-08-06T11:38:44;6;6;
64114;PMS5003;62188;35.640;139.748;2023-08-06T11:41:09;6;5;
64114;PMS5003;62188;35.640;139.748;2023-08-06T11:43:34;5;4;
64114;PMS5003;62188;35.640;139.748;2023-08-06T11:45:59;4;4;
64114;PMS5003;62188;35.640;139.748;2023-08-06T11:48:25;6;6;
64114;PMS5003;62188;35.640;139.748;2023-08-06T11:50:53;6;6;
64114;PMS5003;62188;35.640;139.748;2023-08-06T11:53:15;5;5;
64114;PMS5003;62188;35.640;139.748;2023-08-06T11:55:40;8;6;
64114;PMS5003;62188;35.640;139.748;2023-08-06T11:58:05;5;5;
64114;PMS5003;62188;35.640;139.748;2023-08-06T12:00:31;5;4;
64114;PMS5003;62188;35.640;139.748;2023-08-06T12:02:56;8;5;
64114;PMS5003;62188;35.640;139.748;2023-08-06T12:05:22;6;6;
64114;PMS5003;62188;35.640;139.748;2023-08-06T12:07:48;6;6;
64114;PMS5003;62188;35.640;139.748;2023-08-06T12:10:13;4;4;
64114;PMS5003;62188;35.640;139.748;2023-08-06T12:12:38;5;5;
64114;PMS5003;62188;35.640;139.748;2023-08-06T12:15:03;6;6;
64114;PMS5003;62188;35.640;139.748;2023-08-06T12:17:28;6;6;
64114;PMS5003;62188;35.640;139.748;2023-08-06T12:19:54;6;4;
64114;PMS5003;62188;35.640;139.748;2023-08-06T12:22:19;5;5;
64114;PMS5003;62188;35.640;139.748;2023-08-06T12:24:45;6;6;
64114;PMS5003;62188;35.640;139.748;2023-08-06T12:27:10;8;5;
64114;PMS5003;62188;35.640;139.748;2023-08-06T12:29:35;6;4;
64114;PMS5003;62188;35.640;139.748;2023-08-06T12:32:00;4;4;
64114;PMS5003;62188;35.640;139.748;2023-08-06T12:34:26;3;3;
64114;PMS5003;62188;35.640;139.748;2023-08-06T12:36:51;6;5;
64114;PMS5003;62188;35.640;139.748;2023-08-06T12:39:16;5;5;
64114;PMS5003;62188;35.640;139.748;2023-08-06T12:41:41;7;5;
64114;PMS5003;62188;35.640;139.748;2023-08-06T12:44:07;6;4;
64114;PMS5003;62188;35.640;139.748;2023-08-06T12:46:32;5;4;
64114;PMS5003;62188;35.640;139.748;2023-08-06T12:48:57;4;3;
64114;PMS5003;62188;35.640;139.748;2023-08-06T12:51:23;5;5;
64114;PMS5003;62188;35.640;139.748;2023-08-06T12:53:48;5;5;
64114;PMS5003;62188;35.640;139.748;2023-08-06T12:56:13;5;5;
64114;PMS5003;62188;35.640;139.748;2023-08-06T12:58:38;6;4;
64114;PMS5003;62188;35.640;139.748;2023-08-06T13:01:03;4;4;
64114;PMS5003;62188;35.640;139.748;2023-08-06T13:03:29;6;5;
64114;PMS5003;62188;35.640;139.748;2023-08-06T13:05:54;4;4;
64114;PMS5003;62188;35.640;139.748;2023-08-06T13:08:19;7;4;
64114;PMS5003;62188;35.640;139.748;2023-08-06T13:10:44;6;5;
64114;PMS5003;62188;35.640;139.748;2023-08-06T13:13:10;3;3;
64114;PMS5003;62188;35.640;139.748;2023-08-06T13:15:35;5;5;
64114;PMS5003;62188;35.640;139.748;2023-08-06T13:18:01;9;6;
64114;PMS5003;62188;35.640;139.748;2023-08-06T13:20:26;5;4;
64114;PMS5003;62188;35.640;139.748;2023-08-06T13:22:51;7;7;
64114;PMS5003;62188;35.640;139.748;2023-08-06T13:25:16;5;4;
64114;PMS5003;62188;35.640;139.748;2023-08-06T13:27:41;5;4;
64114;PMS5003;62188;35.640;139.748;2023-08-06T13:30:08;9;8;
64114;PMS5003;62188;35.640;139.748;2023-08-06T13:32:32;5;5;
64114;PMS5003;62188;35.640;139.748;2023-08-06T13:34:58;6;4;
64114;PMS5003;62188;35.640;139.748;2023-08-06T13:37:23;5;5;
64114;PMS5003;62188;35.640;139.748;2023-08-06T13:39:48;7;7;
64114;PMS5003;62188;35.640;139.748;2023-08-06T13:42:13;11;8;
64114;PMS5003;62188;35.640;139.748;2023-08-06T13:44:39;8;8;
64114;PMS5003;62188;35.640;139.748;2023-08-06T13:47:04;6;6;
64114;PMS5003;62188;35.640;139.748;2023-08-06T13:49:29;6;6;
64114;PMS5003;62188;35.640;139.748;2023-08-06T13:51:54;9;8;
64114;PMS5003;62188;35.640;139.748;2023-08-06T13:54:20;8;7;
64114;PMS5003;62188;35.640;139.748;2023-08-06T13:56:45;6;6;
64114;PMS5003;62188;35.640;139.748;2023-08-06T13:59:10;8;8;
64114;PMS5003;62188;35.640;139.748;2023-08-06T14:01:36;5;4;
64114;PMS5003;62188;35.640;139.748;2023-08-06T14:04:01;4;3;
64114;PMS5003;62188;35.640;139.748;2023-08-06T14:06:27;6;6;
64114;PMS5003;62188;35.640;139.748;2023-08-06T14:08:52;6;6;
64114;PMS5003;62188;35.640;139.748;2023-08-06T14:11:17;4;4;
64114;PMS5003;62188;35.640;139.748;2023-08-06T14:13:42;4;3;
64114;PMS5003;62188;35.640;139.748;2023-08-06T14:16:07;5;5;
64114;PMS5003;62188;35.640;139.748;2023-08-06T14:18:33;4;4;
64114;PMS5003;62188;35.640;139.748;2023-08-06T14:20:58;2;2;
64114;PMS5003;62188;35.640;139.748;2023-08-06T14:23:23;3;3;
64114;PMS5003;62188;35.640;139.748;2023-08-06T14:25:49;2;2;
64114;PMS5003;62188;35.640;139.748;2023-08-06T14:28:14;4;2;
64114;PMS5003;62188;35.640;139.748;2023-08-06T14:30:39;2;2;
64114;PMS5003;62188;35.640;139.748;2023-08-06T14:33:04;3;3;
64114;PMS5003;62188;35.640;139.748;2023-08-06T14:35:29;4;4;
64114;PMS5003;62188;35.640;139.748;2023-08-06T14:37:55;5;4;
64114;PMS5003;62188;35.640;139.748;2023-08-06T14:40:20;5;5;
64114;PMS5003;62188;35.640;139.748;2023-08-06T14:42:45;7;6;
64114;PMS5003;62188;35.640;139.748;2023-08-06T14:45:10;6;6;
64114;PMS5003;62188;35.640;139.748;2023-08-06T14:47:36;7;6;
64114;PMS5003;62188;35.640;139.748;2023-08-06T14:50:01;7;7;
64114;PMS5003;62188;35.640;139.748;2023-08-06T14:52:26;7;6;
64114;PMS5003;62188;35.640;139.748;2023-08-06T14:54:52;6;6;
64114;PMS5003;62188;35.640;139.748;2023-08-06T14:57:17;7;6;
64114;PMS5003;62188;35.640;139.748;2023-08-06T14:59:42;7;6;
64114;PMS5003;62188;35.640;139.748;2023-08-06T15:02:08;5;5;
64114;PMS5003;62188;35.640;139.748;2023-08-06T15:04:32;5;5;
64114;PMS5003;62188;35.640;139.748;2023-08-06T15:06:58;6;5;
64114;PMS5003;62188;35.640;139.748;2023-08-06T15:09:23;3;3;
64114;PMS5003;62188;35.640;139.748;2023-08-06T15:11:49;3;2;
64114;PMS5003;62188;35.640;139.748;2023-08-06T15:14:14;1;1;
64114;PMS5003;62188;35.640;139.748;2023-08-06T15:16:39;3;2;
64114;PMS5003;62188;35.640;139.748;2023-08-06T15:19:04;4;2;
64114;PMS5003;62188;35.640;139.748;2023-08-06T15:21:29;2;1;
64114;PMS5003;62188;35.640;139.748;2023-08-06T15:23:54;1;1;
64114;PMS5003;62188;35.640;139.748;2023-08-06T15:26:20;1;1;
64114;PMS5003;62188;35.640;139.748;2023-08-06T15:28:45;1;1;
64114;PMS5003;62188;35.640;139.748;2023-08-06T15:31:10;2;2;
64114;PMS5003;62188;35.640;139.748;2023-08-06T15:33:36;2;2;
64114;PMS5003;62188;35.640;139.748;2023-08-06T15:36:01;2;2;
64114;PMS5003;62188;35.640;139.748;2023-08-06T15:38:26;3;3;
64114;PMS5003;62188;35.640;139.748;2023-08-06T15:40:51;5;4;
64114;PMS5003;62188;35.640;139.748;2023-08-06T15:43:16;6;6;
64114;PMS5003;62188;35.640;139.748;2023-08-06T15:45:42;3;3;
64114;PMS5003;62188;35.640;139.748;2023-08-06T15:48:07;4;3;
64114;PMS5003;62188;35.640;139.748;2023-08-06T15:50:32;3;3;
64114;PMS5003;62188;35.640;139.748;2023-08-06T15:52:57;2;2;
64114;PMS5003;62188;35.640;139.748;2023-08-06T15:55:23;3;2;
64114;PMS5003;62188;35.640;139.748;2023-08-06T15:57:48;1;1;
64114;PMS5003;62188;35.640;139.748;2023-08-06T16:00:14;1;1;
64114;PMS5003;62188;35.640;139.748;2023-08-06T16:02:39;2;2;
64114;PMS5003;62188;35.640;139.748;2023-08-06T16:05:04;4;2;
64114;PMS5003;62188;35.640;139.748;2023-08-06T16:07:29;2;2;
64114;PMS5003;62188;35.640;139.748;2023-08-06T16:09:55;2;2;
64114;PMS5003;62188;35.640;139.748;2023-08-06T16:12:20;3;3;